Time;durP1;ratioP1;P1;durP2;ratioP2;P2;SDS_P1;SDS_P2;PMS_P1;PMS_P2;Temp;Humidity;BMP_temperature;BMP_pressure;BME280_temperature;BME280_humidity;BME280_pressure;Samples;Min_cycle;Max_cycle;Signal;HPM_P1;HPM_P2
2023/03/01 00:01:06;;;;;;;14.63;8.17;;;;;;;;;;5056346;28;20217;-66
2023/03/01 00:03:32;;;;;;;13.90;7.70;;;;;;;;;;5061595;28;20245;-66
2023/03/01 00:05:57;;;;;;;11.97;7.30;;;;;;;;;;5052801;28;20194;-66
2023/03/01 00:08:23;;;;;;;18.53;7.93;;;;;;;;;;5054624;28;20196;-66
2023/03/01 00:10:49;;;;;;;13.97;7.60;;;;;;;;;;5064607;28;20280;-66
2023/03/01 00:13:14;;;;;;;14.00;7.63;;;;;;;;;;5064678;28;20279;-67
2023/03/01 00:15:41;;;;;;;15.07;7.50;;;;;;;;;;5061963;28;20314;-66
2023/03/01 00:18:07;;;;;;;13.10;7.20;;;;;;;;;;5060344;28;20184;-66
2023/03/01 00:20:33;;;;;;;15.93;7.90;;;;;;;;;;5071308;28;20219;-66
2023/03/01 00:22:58;;;;;;;12.73;7.60;;;;;;;;;;5064769;28;20216;-66
2023/03/01 00:25:24;;;;;;;15.83;7.60;;;;;;;;;;5052006;28;20319;-66
2023/03/01 00:27:49;;;;;;;15.13;7.83;;;;;;;;;;5054500;28;20321;-66
2023/03/01 00:30:15;;;;;;;13.57;7.00;;;;;;;;;;5064926;28;20652;-69
2023/03/01 00:32:40;;;;;;;14.20;6.63;;;;;;;;;;5054779;28;20205;-66
2023/03/01 00:35:06;;;;;;;12.23;7.17;;;;;;;;;;5069360;28;20632;-66
2023/03/01 00:37:31;;;;;;;15.60;7.20;;;;;;;;;;5058134;28;20555;-68
2023/03/01 00:39:57;;;;;;;12.13;7.00;;;;;;;;;;5059105;28;20268;-68
2023/03/01 00:42:23;;;;;;;18.10;7.80;;;;;;;;;;5062519;28;20212;-67
2023/03/01 00:44:48;;;;;;;12.77;6.63;;;;;;;;;;5061545;28;20189;-68
2023/03/01 00:47:13;;;;;;;17.17;8.00;;;;;;;;;;5051273;28;20225;-66
2023/03/01 00:49:39;;;;;;;15.60;7.07;;;;;;;;;;5054097;28;20296;-67
2023/03/01 00:52:04;;;;;;;14.17;6.83;;;;;;;;;;5051212;28;20231;-66
2023/03/01 00:54:30;;;;;;;15.37;7.03;;;;;;;;;;5054108;28;20194;-66
2023/03/01 00:56:55;;;;;;;13.10;7.03;;;;;;;;;;5051059;28;20189;-67
2023/03/01 00:59:21;;;;;;;15.57;7.03;;;;;;;;;;5059369;28;20185;-67
2023/03/01 01:01:46;;;;;;;13.03;6.73;;;;;;;;;;5058275;28;20208;-67
2023/03/01 01:04:13;;;;;;;14.67;7.10;;;;;;;;;;5062274;28;20221;-67
2023/03/01 01:06:45;;;;;;;13.77;7.40;;;;;;;;;;5067849;28;20686;-67
2023/03/01 01:09:18;;;;;;;14.80;6.17;;;;;;;;;;5059555;28;20308;-67
2023/03/01 01:11:46;;;;;;;12.73;6.53;;;;;;;;;;5057454;28;20291;-67
2023/03/01 01:14:11;;;;;;;13.27;7.00;;;;;;;;;;5062198;28;20177;-67
2023/03/01 01:16:37;;;;;;;12.47;6.83;;;;;;;;;;5065937;28;20691;-67
2023/03/01 01:19:02;;;;;;;11.93;6.87;;;;;;;;;;5060242;28;20255;-67
2023/03/01 01:21:28;;;;;;;13.03;6.93;;;;;;;;;;5055747;28;20649;-67
2023/03/01 01:23:55;;;;;;;13.77;7.03;;;;;;;;;;5053036;28;20181;-67
2023/03/01 01:26:22;;;;;;;12.27;6.40;;;;;;;;;;5054883;28;20193;-67
2023/03/01 01:28:47;;;;;;;11.67;5.97;;;;;;;;;;5056103;28;20228;-67
2023/03/01 01:31:13;;;;;;;10.77;6.60;;;;;;;;;;5060288;28;20727;-67
2023/03/01 01:33:39;;;;;;;13.83;7.10;;;;;;;;;;5059150;28;20223;-67
2023/03/01 01:36:06;;;;;;;10.73;6.43;;;;;;;;;;5061818;28;20196;-67
2023/03/01 01:38:32;;;;;;;13.50;6.83;;;;;;;;;;5066241;28;20255;-67
2023/03/01 01:40:58;;;;;;;15.40;6.17;;;;;;;;;;5058226;28;20643;-67
2023/03/01 01:43:25;;;;;;;13.10;6.30;;;;;;;;;;5055850;28;20185;-67
2023/03/01 01:45:59;;;;;;;11.20;6.40;;;;;;;;;;5058074;28;20675;-67
2023/03/01 01:48:40;;;;;;;9.30;5.67;;;;;;;;;;5063608;28;20264;-67
2023/03/01 01:51:07;;;;;;;12.77;6.50;;;;;;;;;;5056299;28;20189;-68
2023/03/01 01:53:32;;;;;;;9.47;5.50;;;;;;;;;;5050759;28;20416;-67
2023/03/01 01:56:01;;;;;;;12.07;5.87;;;;;;;;;;5048120;28;20264;-67
2023/03/01 01:58:29;;;;;;;11.13;6.17;;;;;;;;;;5062532;28;20212;-67
2023/03/01 02:00:55;;;;;;;12.33;6.30;;;;;;;;;;5067756;28;20298;-68
2023/03/01 02:03:33;;;;;;;13.03;6.67;;;;;;;;;;5055865;28;20230;-67
2023/03/01 02:06:11;;;;;;;11.33;6.20;;;;;;;;;;5062771;28;20187;-68
2023/03/01 02:08:40;;;;;;;9.93;5.60;;;;;;;;;;5050532;28;20517;-67
2023/03/01 02:11:06;;;;;;;12.17;6.60;;;;;;;;;;5050487;28;20189;-67
2023/03/01 02:13:33;;;;;;;14.93;6.10;;;;;;;;;;5065797;28;20192;-67
2023/03/01 02:16:02;;;;;;;10.47;6.10;;;;;;;;;;5063311;28;20190;-67
2023/03/01 02:18:27;;;;;;;11.87;6.57;;;;;;;;;;5040290;28;20529;-68
2023/03/01 02:21:34;;;;;;;12.20;6.60;;;;;;;;;;5061436;28;20208;-67
2023/03/01 02:24:10;;;;;;;12.23;5.23;;;;;;;;;;5053895;28;20312;-67
2023/03/01 02:26:53;;;;;;;13.33;6.13;;;;;;;;;;5059502;28;20260;-68
2023/03/01 02:29:19;;;;;;;11.97;6.47;;;;;;;;;;5052704;28;20201;-67
2023/03/01 02:31:45;;;;;;;10.70;6.27;;;;;;;;;;5043776;28;20607;-69
2023/03/01 02:34:14;;;;;;;9.97;5.10;;;;;;;;;;5064366;28;20185;-67
2023/03/01 02:36:53;;;;;;;10.00;5.50;;;;;;;;;;5060499;28;20181;-67
2023/03/01 02:39:25;;;;;;;11.23;5.73;;;;;;;;;;5057518;28;20180;-68
2023/03/01 02:41:53;;;;;;;11.57;6.20;;;;;;;;;;5060714;28;20213;-67
2023/03/01 02:44:20;;;;;;;9.07;5.77;;;;;;;;;;5058508;28;20551;-68
2023/03/01 02:46:51;;;;;;;11.07;6.17;;;;;;;;;;5057341;28;20649;-68
2023/03/01 02:49:28;;;;;;;11.03;6.23;;;;;;;;;;5050224;28;20692;-67
2023/03/01 02:52:24;;;;;;;12.73;6.30;;;;;;;;;;5058517;28;20234;-67
2023/03/01 02:55:00;;;;;;;15.83;5.80;;;;;;;;;;5053990;28;20182;-67
2023/03/01 02:57:27;;;;;;;10.87;5.67;;;;;;;;;;5053520;28;20251;-67
2023/03/01 02:59:54;;;;;;;13.97;6.23;;;;;;;;;;5064123;28;20363;-67
2023/03/01 03:02:36;;;;;;;11.10;6.00;;;;;;;;;;5053554;28;20233;-68
2023/03/01 03:05:13;;;;;;;10.27;5.83;;;;;;;;;;5057860;28;20263;-67
2023/03/01 03:07:41;;;;;;;15.77;6.07;;;;;;;;;;5051428;28;20560;-67
2023/03/01 03:10:11;;;;;;;11.50;6.73;;;;;;;;;;5057732;28;20208;-69
2023/03/01 03:12:37;;;;;;;11.40;5.90;;;;;;;;;;5061274;28;20199;-68
2023/03/01 03:15:08;;;;;;;9.97;5.60;;;;;;;;;;5051278;28;20283;-68
2023/03/01 03:17:37;;;;;;;10.87;6.10;;;;;;;;;;5048701;28;20193;-68
2023/03/01 03:20:05;;;;;;;13.27;6.30;;;;;;;;;;5055152;28;20250;-68
2023/03/01 03:22:33;;;;;;;11.07;6.27;;;;;;;;;;5050690;28;20209;-68
2023/03/01 03:24:59;;;;;;;11.47;5.90;;;;;;;;;;5057748;28;20327;-68
2023/03/01 03:27:24;;;;;;;11.93;6.33;;;;;;;;;;5060388;28;20244;-68
2023/03/01 03:29:50;;;;;;;11.13;6.43;;;;;;;;;;5054202;28;20232;-68
2023/03/01 03:32:15;;;;;;;12.90;5.90;;;;;;;;;;5051402;28;20201;-68
2023/03/01 03:34:40;;;;;;;10.30;5.80;;;;;;;;;;5064049;28;20188;-68
2023/03/01 03:38:01;;;;;;;9.63;5.47;;;;;;;;;;5063190;28;20177;-68
2023/03/01 03:39:54;;;;;;;11.43;6.10;;;;;;;;;;5059314;28;20185;-67
2023/03/01 03:42:21;;;;;;;10.00;5.30;;;;;;;;;;5071510;28;20184;-67
2023/03/01 03:44:46;;;;;;;12.50;6.23;;;;;;;;;;5056322;28;20227;-67
2023/03/01 03:47:12;;;;;;;12.43;5.53;;;;;;;;;;5051419;28;20646;-68
2023/03/01 03:49:40;;;;;;;12.17;5.50;;;;;;;;;;5064409;28;20201;-68
2023/03/01 03:52:13;;;;;;;10.73;5.43;;;;;;;;;;5059385;28;20180;-68
2023/03/01 03:54:41;;;;;;;13.10;6.30;;;;;;;;;;5059393;28;20190;-68
2023/03/01 03:57:06;;;;;;;11.03;6.07;;;;;;;;;;5058534;28;20189;-68
2023/03/01 03:59:32;;;;;;;10.27;5.80;;;;;;;;;;5063252;28;20185;-68
2023/03/01 04:01:57;;;;;;;10.60;5.03;;;;;;;;;;5055729;28;20193;-68
2023/03/01 04:04:23;;;;;;;11.30;6.00;;;;;;;;;;5055982;28;20185;-68
2023/03/01 04:06:48;;;;;;;12.43;6.30;;;;;;;;;;5058093;28;20594;-69
2023/03/01 04:09:14;;;;;;;11.33;6.33;;;;;;;;;;5051994;28;20209;-68
2023/03/01 04:11:39;;;;;;;13.87;6.77;;;;;;;;;;5051964;28;20200;-68
2023/03/01 04:14:04;;;;;;;12.67;6.30;;;;;;;;;;5055013;28;20181;-68
2023/03/01 04:16:30;;;;;;;13.53;5.77;;;;;;;;;;5059187;28;20657;-67
2023/03/01 04:18:56;;;;;;;12.13;6.90;;;;;;;;;;5061201;28;20191;-67
2023/03/01 04:21:22;;;;;;;12.87;6.07;;;;;;;;;;5061078;28;20263;-67
2023/03/01 04:23:47;;;;;;;12.33;6.83;;;;;;;;;;5061264;28;20276;-67
2023/03/01 04:26:13;;;;;;;11.80;6.40;;;;;;;;;;5066784;28;20193;-68
2023/03/01 04:28:42;;;;;;;10.43;6.20;;;;;;;;;;5058958;28;20189;-67
2023/03/01 04:31:15;;;;;;;13.50;6.80;;;;;;;;;;5068160;28;20788;-68
2023/03/01 04:33:52;;;;;;;11.07;6.20;;;;;;;;;;5059329;28;20534;-67
2023/03/01 04:36:20;;;;;;;10.43;6.33;;;;;;;;;;5064927;28;20545;-68
2023/03/01 04:38:48;;;;;;;13.47;6.87;;;;;;;;;;5071859;28;20207;-67
2023/03/01 04:41:17;;;;;;;15.57;6.23;;;;;;;;;;5044037;28;20843;-67
2023/03/01 04:43:42;;;;;;;10.87;5.83;;;;;;;;;;5058735;28;20606;-67
2023/03/01 04:46:10;;;;;;;12.13;6.17;;;;;;;;;;5064503;28;20253;-68
2023/03/01 04:48:37;;;;;;;12.00;6.37;;;;;;;;;;5056720;28;20279;-67
2023/03/01 04:51:03;;;;;;;14.23;6.40;;;;;;;;;;5069007;28;20196;-68
2023/03/01 04:53:29;;;;;;;13.70;7.07;;;;;;;;;;5069067;28;20222;-68
2023/03/01 04:55:55;;;;;;;12.87;6.97;;;;;;;;;;5066039;28;20238;-67
2023/03/01 04:58:23;;;;;;;12.93;6.70;;;;;;;;;;5070853;28;20708;-69
2023/03/01 05:00:48;;;;;;;14.03;7.07;;;;;;;;;;5060038;28;20213;-69
2023/03/01 05:03:17;;;;;;;12.73;6.90;;;;;;;;;;5065634;28;20189;-69
2023/03/01 05:05:44;;;;;;;13.93;7.13;;;;;;;;;;5067477;28;20656;-69
2023/03/01 05:08:17;;;;;;;15.63;6.87;;;;;;;;;;5064704;28;20269;-69
2023/03/01 05:10:43;;;;;;;14.17;7.00;;;;;;;;;;5058544;28;20624;-69
2023/03/01 05:13:09;;;;;;;13.03;6.83;;;;;;;;;;5069727;28;20208;-69
2023/03/01 05:15:36;;;;;;;11.27;6.20;;;;;;;;;;5068893;28;20182;-68
2023/03/01 05:18:02;;;;;;;13.13;7.13;;;;;;;;;;5065096;28;20733;-69
2023/03/01 05:20:30;;;;;;;12.23;6.77;;;;;;;;;;5069226;28;20636;-68
2023/03/01 05:22:58;;;;;;;12.90;6.80;;;;;;;;;;5055335;28;20177;-68
2023/03/01 05:25:24;;;;;;;14.70;6.73;;;;;;;;;;5053175;28;20265;-69
2023/03/01 05:27:50;;;;;;;13.47;7.00;;;;;;;;;;5070518;28;20213;-69
2023/03/01 05:30:17;;;;;;;13.70;7.37;;;;;;;;;;5067137;28;20278;-69
2023/03/01 05:32:45;;;;;;;12.30;6.80;;;;;;;;;;5064422;28;20193;-69
2023/03/01 05:35:15;;;;;;;13.60;7.23;;;;;;;;;;5054028;28;20193;-69
2023/03/01 05:37:47;;;;;;;15.70;6.63;;;;;;;;;;5060148;28;20423;-69
2023/03/01 05:40:15;;;;;;;13.50;6.73;;;;;;;;;;5049271;28;21958;-69
2023/03/01 05:42:55;;;;;;;13.97;7.00;;;;;;;;;;5050124;28;20559;-69
2023/03/01 05:45:22;;;;;;;13.53;7.00;;;;;;;;;;5049113;28;20185;-69
2023/03/01 05:47:48;;;;;;;13.57;7.47;;;;;;;;;;5059984;28;20295;-69
2023/03/01 05:50:19;;;;;;;13.90;7.20;;;;;;;;;;5048403;28;20316;-69
2023/03/01 05:52:52;;;;;;;14.23;7.10;;;;;;;;;;5063736;28;20180;-69
2023/03/01 05:55:20;;;;;;;15.07;7.27;;;;;;;;;;5060101;28;20496;-69
2023/03/01 05:57:46;;;;;;;13.93;6.73;;;;;;;;;;5057682;28;20687;-69
2023/03/01 06:00:14;;;;;;;15.63;6.97;;;;;;;;;;5052207;28;20201;-69
2023/03/01 06:02:40;;;;;;;11.30;6.33;;;;;;;;;;5052391;28;20217;-69
2023/03/01 06:05:08;;;;;;;17.70;7.80;;;;;;;;;;5063173;28;20248;-69
2023/03/01 06:07:33;;;;;;;13.00;6.70;;;;;;;;;;5064773;28;20196;-69
2023/03/01 06:09:58;;;;;;;13.10;6.10;;;;;;;;;;5055109;28;20261;-69
2023/03/01 06:12:24;;;;;;;13.13;7.37;;;;;;;;;;5053556;28;20196;-69
2023/03/01 06:14:49;;;;;;;13.80;7.30;;;;;;;;;;5049551;28;20193;-69
2023/03/01 06:17:15;;;;;;;12.63;7.00;;;;;;;;;;5062090;28;20189;-69
2023/03/01 06:19:40;;;;;;;13.20;6.87;;;;;;;;;;5068412;28;20184;-69
2023/03/01 06:22:06;;;;;;;16.67;7.63;;;;;;;;;;5057824;28;20186;-69
2023/03/01 06:24:32;;;;;;;14.90;7.17;;;;;;;;;;5052129;28;20185;-69
2023/03/01 06:26:58;;;;;;;14.73;7.30;;;;;;;;;;5056140;28;20682;-69
2023/03/01 06:29:23;;;;;;;17.43;8.13;;;;;;;;;;5053188;28;20299;-69
2023/03/01 06:31:49;;;;;;;15.20;7.60;;;;;;;;;;5053306;28;20193;-69
2023/03/01 06:34:14;;;;;;;16.83;7.93;;;;;;;;;;5049220;28;20692;-69
2023/03/01 06:36:40;;;;;;;19.80;7.60;;;;;;;;;;5068099;28;20271;-69
2023/03/01 06:39:06;;;;;;;17.80;7.53;;;;;;;;;;5052529;28;20190;-69
2023/03/01 06:41:32;;;;;;;14.10;7.53;;;;;;;;;;5050673;28;20554;-70
2023/03/01 06:43:58;;;;;;;14.40;7.63;;;;;;;;;;4355656;28;10022680;-69
2023/03/01 06:46:24;;;;;;;17.53;7.90;;;;;;;;;;5056497;28;20593;-69
2023/03/01 06:48:49;;;;;;;13.20;7.33;;;;;;;;;;5054572;28;20217;-69
2023/03/01 06:51:14;;;;;;;18.30;8.00;;;;;;;;;;5053771;28;20228;-69
2023/03/01 06:53:40;;;;;;;17.27;8.43;;;;;;;;;;5058273;28;20611;-69
2023/03/01 06:56:05;;;;;;;15.33;7.97;;;;;;;;;;5051475;28;20193;-69
2023/03/01 06:58:31;;;;;;;15.67;7.70;;;;;;;;;;5056884;28;20192;-69
2023/03/01 07:00:56;;;;;;;19.57;7.37;;;;;;;;;;5050840;28;20240;-69
2023/03/01 07:03:22;;;;;;;16.17;8.17;;;;;;;;;;5057904;28;20224;-69
2023/03/01 07:05:54;;;;;;;16.77;8.13;;;;;;;;;;5059311;28;20636;-69
2023/03/01 07:08:20;;;;;;;10.87;6.43;;;;;;;;;;5052346;28;20754;-69
2023/03/01 07:10:45;;;;;;;11.57;6.77;;;;;;;;;;5058384;28;20205;-69
2023/03/01 07:13:11;;;;;;;16.20;7.93;;;;;;;;;;5058436;28;20193;-70
2023/03/01 07:15:36;;;;;;;16.70;7.17;;;;;;;;;;5044614;28;20203;-69
2023/03/01 07:18:02;;;;;;;16.23;8.00;;;;;;;;;;5057652;28;20172;-69
2023/03/01 07:20:27;;;;;;;16.27;7.83;;;;;;;;;;5056772;28;20220;-69
2023/03/01 07:22:54;;;;;;;14.60;7.53;;;;;;;;;;5058377;28;20215;-69
2023/03/01 07:25:20;;;;;;;15.00;8.23;;;;;;;;;;5058418;28;20188;-69
2023/03/01 07:27:50;;;;;;;19.60;7.87;;;;;;;;;;5063752;28;20247;-70
2023/03/01 07:30:15;;;;;;;17.30;8.60;;;;;;;;;;5071463;28;20232;-69
2023/03/01 07:32:41;;;;;;;17.03;8.73;;;;;;;;;;5074091;28;20319;-69
2023/03/01 07:35:07;;;;;;;15.77;8.50;;;;;;;;;;5058599;28;20527;-69
2023/03/01 07:37:32;;;;;;;17.53;9.00;;;;;;;;;;5065098;28;20185;-69
2023/03/01 07:39:57;;;;;;;19.80;9.20;;;;;;;;;;5061618;28;20216;-70
2023/03/01 07:42:23;;;;;;;20.20;9.27;;;;;;;;;;5061025;28;20641;-69
2023/03/01 07:44:48;;;;;;;18.63;10.17;;;;;;;;;;5058484;28;20209;-69
2023/03/01 07:47:14;;;;;;;19.47;9.03;;;;;;;;;;5062396;28;20576;-69
2023/03/01 07:49:39;;;;;;;22.73;10.00;;;;;;;;;;5054203;28;20209;-69
2023/03/01 07:52:04;;;;;;;20.27;10.10;;;;;;;;;;5053287;28;20196;-69
2023/03/01 07:54:30;;;;;;;22.10;11.27;;;;;;;;;;5054172;28;20572;-69
2023/03/01 07:56:56;;;;;;;18.17;9.73;;;;;;;;;;5054490;28;20276;-68
2023/03/01 07:59:23;;;;;;;24.70;11.00;;;;;;;;;;5057029;28;20193;-68
2023/03/01 08:01:49;;;;;;;22.27;11.77;;;;;;;;;;5055140;28;20691;-69
2023/03/01 08:04:14;;;;;;;22.73;11.80;;;;;;;;;;5052829;28;20229;-69
2023/03/01 08:06:39;;;;;;;24.50;11.47;;;;;;;;;;5059276;28;20565;-69
2023/03/01 08:09:05;;;;;;;26.40;12.83;;;;;;;;;;5052290;28;20272;-69
2023/03/01 08:11:30;;;;;;;22.07;12.73;;;;;;;;;;5056970;28;21262;-68
2023/03/01 08:13:57;;;;;;;27.07;12.90;;;;;;;;;;5049715;28;20295;-66
2023/03/01 08:16:22;;;;;;;24.73;13.03;;;;;;;;;;5054561;28;20190;-67
2023/03/01 08:18:48;;;;;;;25.50;13.20;;;;;;;;;;5059111;28;20700;-67
2023/03/01 08:21:18;;;;;;;25.37;13.13;;;;;;;;;;5058131;28;20189;-67
2023/03/01 08:23:43;;;;;;;20.13;12.47;;;;;;;;;;5052804;28;20622;-67
2023/03/01 08:26:12;;;;;;;20.83;12.23;;;;;;;;;;5052970;28;20190;-67
2023/03/01 08:28:38;;;;;;;21.00;12.80;;;;;;;;;;5056132;28;20667;-67
2023/03/01 08:31:13;;;;;;;19.87;12.37;;;;;;;;;;5054992;28;20255;-66
2023/03/01 08:33:39;;;;;;;17.83;11.93;;;;;;;;;;5054621;28;20316;-66
2023/03/01 08:36:06;;;;;;;25.70;12.53;;;;;;;;;;5054865;28;20292;-66
2023/03/01 08:38:32;;;;;;;21.13;11.33;;;;;;;;;;5053437;28;20197;-66
2023/03/01 08:41:00;;;;;;;18.80;11.40;;;;;;;;;;5050566;28;20621;-66
2023/03/01 08:43:26;;;;;;;17.27;10.77;;;;;;;;;;5055573;28;20395;-66
2023/03/01 08:45:51;;;;;;;20.80;11.87;;;;;;;;;;5050079;28;20327;-66
2023/03/01 08:48:16;;;;;;;19.53;11.17;;;;;;;;;;5049627;28;20264;-66
2023/03/01 08:50:42;;;;;;;21.53;11.73;;;;;;;;;;5051373;28;20254;-66
2023/03/01 08:53:07;;;;;;;20.43;11.57;;;;;;;;;;5058253;28;20201;-66
2023/03/01 08:55:32;;;;;;;15.57;10.07;;;;;;;;;;5057201;28;20200;-66
2023/03/01 08:57:59;;;;;;;13.57;8.63;;;;;;;;;;5048528;28;20671;-66
2023/03/01 09:00:24;;;;;;;12.10;7.90;;;;;;;;;;5051285;28;20691;-66
2023/03/01 09:02:50;;;;;;;14.30;7.83;;;;;;;;;;5050199;28;20200;-66
2023/03/01 09:05:15;;;;;;;12.57;6.97;;;;;;;;;;5054724;28;20559;-66
2023/03/01 09:07:41;;;;;;;9.67;6.27;;;;;;;;;;5052856;28;20194;-66
2023/03/01 09:10:07;;;;;;;9.57;6.03;;;;;;;;;;5057655;28;20196;-65
2023/03/01 09:12:32;;;;;;;11.10;6.47;;;;;;;;;;5050421;28;20279;-66
2023/03/01 09:14:57;;;;;;;8.90;5.97;;;;;;;;;;5054974;28;20204;-66
2023/03/01 09:17:23;;;;;;;9.53;5.43;;;;;;;;;;5047655;28;20198;-66
2023/03/01 09:19:49;;;;;;;8.93;5.60;;;;;;;;;;5057099;28;20606;-65
2023/03/01 09:22:14;;;;;;;10.73;5.40;;;;;;;;;;5053682;28;20208;-65
2023/03/01 09:24:40;;;;;;;7.83;5.30;;;;;;;;;;5053095;28;20197;-66
2023/03/01 09:27:08;;;;;;;8.30;5.57;;;;;;;;;;5050712;28;20189;-65
2023/03/01 09:29:37;;;;;;;10.00;5.70;;;;;;;;;;5049111;28;20232;-65
2023/03/01 09:32:02;;;;;;;8.80;5.47;;;;;;;;;;5050760;28;20204;-65
2023/03/01 09:34:28;;;;;;;10.13;5.73;;;;;;;;;;5047985;28;20194;-66
2023/03/01 09:36:53;;;;;;;10.27;5.13;;;;;;;;;;5053777;28;20189;-66
2023/03/01 09:39:20;;;;;;;10.23;5.10;;;;;;;;;;5050241;28;20255;-66
2023/03/01 09:42:01;;;;;;;9.47;5.77;;;;;;;;;;5057447;28;20208;-65
2023/03/01 09:44:40;;;;;;;7.67;4.27;;;;;;;;;;5053021;28;20243;-65
2023/03/01 09:47:09;;;;;;;6.60;4.27;;;;;;;;;;5058753;28;20278;-67
2023/03/01 09:49:39;;;;;;;12.07;4.70;;;;;;;;;;5051036;28;20209;-67
2023/03/01 09:52:33;;;;;;;9.30;4.20;;;;;;;;;;5054343;28;20188;-66
2023/03/01 09:54:58;;;;;;;8.60;4.13;;;;;;;;;;5056649;28;20676;-66
2023/03/01 09:57:43;;;;;;;6.40;3.90;;;;;;;;;;5056315;28;20220;-67
2023/03/01 10:00:35;;;;;;;7.33;4.10;;;;;;;;;;5049025;28;20297;-66
2023/03/01 10:03:11;;;;;;;7.10;4.07;;;;;;;;;;5055013;28;20360;-65
2023/03/01 10:05:59;;;;;;;9.03;4.53;;;;;;;;;;5052912;28;20181;-66
2023/03/01 10:08:50;;;;;;;7.60;3.90;;;;;;;;;;5052471;28;20223;-66
2023/03/01 10:11:20;;;;;;;6.17;3.80;;;;;;;;;;5052011;28;20292;-66
2023/03/01 10:13:56;;;;;;;6.23;3.83;;;;;;;;;;5048862;28;20178;-66
2023/03/01 10:16:48;;;;;;;7.27;4.10;;;;;;;;;;5045157;28;20481;-66
2023/03/01 10:19:26;;;;;;;8.63;4.20;;;;;;;;;;5049763;28;20189;-66
2023/03/01 10:21:53;;;;;;;8.13;4.20;;;;;;;;;;5049609;28;20181;-66
2023/03/01 10:24:22;;;;;;;6.80;4.13;;;;;;;;;;5047194;28;20719;-65
2023/03/01 10:26:55;;;;;;;9.83;4.40;;;;;;;;;;5048722;28;20190;-66
2023/03/01 10:29:26;;;;;;;8.10;4.23;;;;;;;;;;5053912;28;20213;-66
2023/03/01 10:31:53;;;;;;;7.77;4.20;;;;;;;;;;5051494;28;20263;-66
2023/03/01 10:34:28;;;;;;;7.93;4.00;;;;;;;;;;5056526;28;20232;-66
2023/03/01 10:36:57;;;;;;;7.57;4.30;;;;;;;;;;5046582;28;20216;-65
2023/03/01 10:39:24;;;;;;;6.03;3.77;;;;;;;;;;5050068;28;20185;-66
2023/03/01 10:42:02;;;;;;;7.93;4.27;;;;;;;;;;5047663;28;20285;-66
2023/03/01 10:44:48;;;;;;;7.50;3.90;;;;;;;;;;5059577;28;20185;-66
2023/03/01 10:47:21;;;;;;;5.57;3.60;;;;;;;;;;5051884;28;20547;-67
2023/03/01 10:50:02;;;;;;;10.73;4.03;;;;;;;;;;5051889;28;20233;-67
2023/03/01 10:52:33;;;;;;;6.93;3.33;;;;;;;;;;5049873;28;20294;-67
2023/03/01 10:55:03;;;;;;;5.60;3.40;;;;;;;;;;5050306;28;20517;-67
2023/03/01 10:57:31;;;;;;;7.63;4.10;;;;;;;;;;5049060;28;20208;-67
2023/03/01 11:00:24;;;;;;;6.37;3.43;;;;;;;;;;5046722;28;20624;-67
2023/03/01 11:02:57;;;;;;;6.60;4.00;;;;;;;;;;5049980;28;20197;-67
2023/03/01 11:05:25;;;;;;;5.87;3.63;;;;;;;;;;5047978;28;20220;-67
2023/03/01 11:07:58;;;;;;;6.73;3.70;;;;;;;;;;5058520;28;20200;-67
2023/03/01 11:10:26;;;;;;;7.13;4.00;;;;;;;;;;5054646;28;20208;-67
2023/03/01 11:12:53;;;;;;;6.27;3.50;;;;;;;;;;5049349;28;20611;-67
2023/03/01 11:15:26;;;;;;;6.37;3.73;;;;;;;;;;5053744;28;20180;-67
2023/03/01 11:17:52;;;;;;;6.63;3.53;;;;;;;;;;5053988;28;20757;-67
2023/03/01 11:20:34;;;;;;;7.70;3.83;;;;;;;;;;5048277;28;20316;-67
2023/03/01 11:23:05;;;;;;;8.17;3.17;;;;;;;;;;5052870;28;20185;-67
2023/03/01 11:25:37;;;;;;;6.63;3.40;;;;;;;;;;5054736;28;20186;-67
2023/03/01 11:28:09;;;;;;;7.33;3.47;;;;;;;;;;5047681;28;20667;-67
2023/03/01 11:30:59;;;;;;;4.33;2.73;;;;;;;;;;5055408;28;20552;-68
2023/03/01 11:33:42;;;;;;;6.03;3.17;;;;;;;;;;5052515;28;20225;-67
2023/03/01 11:36:26;;;;;;;11.03;3.10;;;;;;;;;;5050820;28;20269;-67
2023/03/01 11:38:54;;;;;;;5.77;2.97;;;;;;;;;;5052945;28;20197;-67
2023/03/01 11:41:25;;;;;;;6.03;3.00;;;;;;;;;;5052305;28;20184;-68
2023/03/01 11:44:01;;;;;;;5.00;3.20;;;;;;;;;;5055293;28;20239;-67
2023/03/01 11:46:35;;;;;;;4.70;3.07;;;;;;;;;;5062648;28;20178;-67
2023/03/01 11:49:08;;;;;;;4.07;2.60;;;;;;;;;;5051255;28;20227;-67
2023/03/01 11:51:42;;;;;;;5.47;2.63;;;;;;;;;;5049669;28;20460;-67
2023/03/01 11:54:29;;;;;;;5.00;2.90;;;;;;;;;;5053632;28;20473;-67
2023/03/01 11:56:59;;;;;;;3.63;2.30;;;;;;;;;;5049268;28;20189;-67
2023/03/01 11:59:25;;;;;;;3.80;2.33;;;;;;;;;;5051527;28;20508;-68
2023/03/01 12:02:21;;;;;;;4.20;2.80;;;;;;;;;;5047772;28;20223;-67
2023/03/01 12:04:59;;;;;;;5.33;2.47;;;;;;;;;;5060451;28;20189;-67
2023/03/01 12:07:46;;;;;;;3.97;2.63;;;;;;;;;;5057141;28;20272;-67
2023/03/01 12:10:22;;;;;;;5.30;2.60;;;;;;;;;;5060254;28;20336;-67
2023/03/01 12:12:51;;;;;;;4.90;2.90;;;;;;;;;;5057928;28;20192;-67
2023/03/01 12:15:41;;;;;;;4.33;2.60;;;;;;;;;;5049837;28;20185;-67
2023/03/01 12:18:30;;;;;;;4.13;2.57;;;;;;;;;;5053846;28;20238;-68
2023/03/01 12:21:04;;;;;;;4.27;2.50;;;;;;;;;;5051884;28;20519;-67
2023/03/01 12:23:49;;;;;;;4.33;2.77;;;;;;;;;;5049247;28;20790;-67
2023/03/01 12:26:41;;;;;;;5.40;3.07;;;;;;;;;;5051203;28;20230;-66
2023/03/01 12:29:21;;;;;;;4.35;3.08;;;;;;;;;;5049431;28;20695;-67
2023/03/01 12:32:00;;;;;;;3.58;2.75;;;;;;;;;;5053275;28;20184;-65
2023/03/01 12:34:44;;;;;;;5.03;2.92;;;;;;;;;;5054553;28;20220;-66
2023/03/01 12:37:29;;;;;;;5.33;2.90;;;;;;;;;;5055388;28;21530;-67
2023/03/01 12:40:27;;;;;;;5.30;2.73;;;;;;;;;;5052608;28;20200;-67
2023/03/01 12:43:21;;;;;;;7.40;3.10;;;;;;;;;;5054103;28;20189;-66
2023/03/01 12:45:58;;;;;;;4.40;2.90;;;;;;;;;;5057637;28;20212;-65
2023/03/01 12:48:36;;;;;;;5.40;3.10;;;;;;;;;;5045393;28;20203;-67
2023/03/01 12:51:07;;;;;;;4.32;3.00;;;;;;;;;;5055983;28;20236;-66
2023/03/01 12:53:37;;;;;;;7.82;2.90;;;;;;;;;;5050854;28;20625;-66
2023/03/01 12:56:09;;;;;;;6.10;3.22;;;;;;;;;;5061374;28;20183;-66
2023/03/01 12:59:03;;;;;;;5.95;2.88;;;;;;;;;;5057142;28;20197;-66
2023/03/01 13:01:45;;;;;;;4.53;3.00;;;;;;;;;;5052919;28;20292;-66
2023/03/01 13:04:30;;;;;;;5.22;2.80;;;;;;;;;;5054716;28;20775;-66
2023/03/01 13:07:33;;;;;;;6.68;2.80;;;;;;;;;;5059693;28;20212;-66
2023/03/01 13:10:24;;;;;;;4.70;3.03;;;;;;;;;;5056515;28;20201;-66
2023/03/01 13:13:00;;;;;;;5.43;3.30;;;;;;;;;;5052942;28;20197;-66
2023/03/01 13:15:32;;;;;;;5.93;3.47;;;;;;;;;;5049786;28;20189;-66
2023/03/01 13:18:03;;;;;;;5.97;3.20;;;;;;;;;;5049492;28;20240;-67
2023/03/01 13:20:33;;;;;;;4.82;3.20;;;;;;;;;;5054344;28;20190;-67
2023/03/01 13:23:11;;;;;;;4.43;2.80;;;;;;;;;;5051882;28;20185;-67
2023/03/01 13:26:02;;;;;;;5.07;3.03;;;;;;;;;;5056085;28;20239;-66
2023/03/01 13:29:05;;;;;;;8.57;3.40;;;;;;;;;;5057664;28;20204;-66
2023/03/01 13:31:31;;;;;;;5.82;3.38;;;;;;;;;;5059071;28;20213;-66
2023/03/01 13:33:59;;;;;;;5.25;3.15;;;;;;;;;;5052846;28;20240;-67
2023/03/01 13:36:28;;;;;;;6.75;3.22;;;;;;;;;;5053535;28;20202;-66
2023/03/01 13:38:53;;;;;;;5.05;3.35;;;;;;;;;;5050959;28;20200;-67
2023/03/01 13:41:38;;;;;;;6.63;2.78;;;;;;;;;;5050009;28;20189;-66
2023/03/01 13:44:21;;;;;;;5.55;2.90;;;;;;;;;;5051391;28;20185;-66
2023/03/01 13:46:47;;;;;;;4.65;3.03;;;;;;;;;;5051107;28;20286;-66
2023/03/01 13:49:19;;;;;;;5.65;3.03;;;;;;;;;;5049915;28;20213;-66
2023/03/01 13:51:50;;;;;;;5.28;2.90;;;;;;;;;;5055422;28;20204;-68
2023/03/01 13:54:24;;;;;;;5.00;3.03;;;;;;;;;;5065597;28;20182;-66
2023/03/01 13:56:50;;;;;;;3.80;2.80;;;;;;;;;;5054078;28;20679;-66
2023/03/01 13:59:21;;;;;;;9.65;3.65;;;;;;;;;;5052604;28;20187;-66
2023/03/01 14:02:13;;;;;;;4.35;2.85;;;;;;;;;;5055957;28;20680;-66
2023/03/01 14:04:40;;;;;;;6.40;3.17;;;;;;;;;;5056362;28;20237;-66
2023/03/01 14:07:19;;;;;;;8.90;3.65;;;;;;;;;;5061026;28;20185;-66
2023/03/01 14:09:48;;;;;;;5.80;3.22;;;;;;;;;;5054972;28;20213;-66
2023/03/01 14:12:44;;;;;;;5.17;3.30;;;;;;;;;;5056879;28;20189;-66
2023/03/01 14:15:57;;;;;;;7.70;3.75;;;;;;;;;;5056105;28;20604;-66
2023/03/01 14:18:47;;;;;;;8.82;3.17;;;;;;;;;;5056731;28;20673;-66
2023/03/01 14:21:15;;;;;;;9.88;3.88;;;;;;;;;;5055577;28;20197;-66
2023/03/01 14:23:42;;;;;;;5.70;3.20;;;;;;;;;;5052091;28;20573;-66
2023/03/01 14:26:08;;;;;;;6.57;3.25;;;;;;;;;;5052055;28;20192;-66
2023/03/01 14:28:38;;;;;;;6.72;3.20;;;;;;;;;;5052022;28;20260;-66
2023/03/01 14:31:32;;;;;;;5.70;3.23;;;;;;;;;;5050091;28;20227;-66
2023/03/01 14:33:58;;;;;;;5.50;3.43;;;;;;;;;;5053561;28;20229;-66
2023/03/01 14:36:28;;;;;;;6.32;3.47;;;;;;;;;;5051211;28;20198;-66
2023/03/01 14:38:54;;;;;;;4.45;3.00;;;;;;;;;;5052870;28;20191;-66
2023/03/01 14:41:27;;;;;;;5.55;2.70;;;;;;;;;;5051062;28;20255;-66
2023/03/01 14:43:59;;;;;;;6.28;3.40;;;;;;;;;;5053742;28;20215;-66
2023/03/01 14:46:28;;;;;;;4.40;2.83;;;;;;;;;;5053006;28;20296;-65
2023/03/01 14:49:02;;;;;;;4.88;2.55;;;;;;;;;;5052937;28;20190;-66
2023/03/01 14:51:28;;;;;;;5.38;3.10;;;;;;;;;;5056009;28;20255;-65
2023/03/01 14:53:54;;;;;;;6.82;3.22;;;;;;;;;;5054395;28;20189;-65